sensor_id;sensor_type;location;lat;lon;timestamp;pressure;altitude;pressure_sealevel;temperature;humidity
41230;BME280;26964;50.428;19.218;2022-11-24T00:03:30;1009.0;;;0.3;82.5
41230;BME280;26964;50.428;19.218;2022-11-24T00:08:30;1009.0;;;0.3;82.5
41230;BME280;26964;50.428;19.218;2022-11-24T00:13:31;1009.1;;;0.3;82.5
41230;BME280;26964;50.428;19.218;2022-11-24T00:18:30;1009.1;;;0.2;82.5
41230;BME280;26964;50.428;19.218;2022-11-24T00:23:31;1009.1;;;0.2;82.5
41230;BME280;26964;50.428;19.218;2022-11-24T00:28:31;1009.2;;;0.2;82.6
41230;BME280;26964;50.428;19.218;2022-11-24T00:33:31;1009.3;;;0.2;82.6
41230;BME280;26964;50.428;19.218;2022-11-24T00:38:30;1009.3;;;0.2;82.6
41230;BME280;26964;50.428;19.218;2022-11-24T00:43:30;1009.4;;;0.2;82.6
41230;BME280;26964;50.428;19.218;2022-11-24T00:48:30;1009.5;;;0.2;82.6
41230;BME280;26964;50.428;19.218;2022-11-24T00:53:31;1009.5;;;0.2;82.7
41230;BME280;26964;50.428;19.218;2022-11-24T00:58:30;1009.5;;;0.3;82.6
41230;BME280;26964;50.428;19.218;2022-11-24T01:03:31;1009.4;;;0.3;82.6
41230;BME280;26964;50.428;19.218;2022-11-24T01:08:31;1009.4;;;0.3;82.7
41230;BME280;26964;50.428;19.218;2022-11-24T01:13:31;1009.4;;;0.3;82.7
41230;BME280;26964;50.428;19.218;2022-11-24T01:18:30;1009.4;;;0.3;82.6
41230;BME280;26964;50.428;19.218;2022-11-24T01:23:30;1009.4;;;0.3;82.6
41230;BME280;26964;50.428;19.218;2022-11-24T01:28:30;1009.6;;;0.3;82.7
41230;BME280;26964;50.428;19.218;2022-11-24T01:33:30;1009.6;;;0.3;82.7
41230;BME280;26964;50.428;19.218;2022-11-24T01:38:30;1009.6;;;0.3;82.7
41230;BME280;26964;50.428;19.218;2022-11-24T01:43:31;1009.8;;;0.3;82.6
41230;BME280;26964;50.428;19.218;2022-11-24T01:48:35;1009.7;;;0.3;82.6
41230;BME280;26964;50.428;19.218;2022-11-24T01:53:31;1009.7;;;0.3;82.7
41230;BME280;26964;50.428;19.218;2022-11-24T01:58:31;1009.8;;;0.3;82.7
41230;BME280;26964;50.428;19.218;2022-11-24T02:03:34;1009.7;;;0.3;82.7
41230;BME280;26964;50.428;19.218;2022-11-24T02:08:37;1009.9;;;0.3;82.8
41230;BME280;26964;50.428;19.218;2022-11-24T02:13:31;1009.7;;;0.3;82.7
41230;BME280;26964;50.428;19.218;2022-11-24T02:18:30;1009.8;;;0.3;82.6
41230;BME280;26964;50.428;19.218;2022-11-24T02:23:36;1009.7;;;0.3;82.7
41230;BME280;26964;50.428;19.218;2022-11-24T02:28:30;1009.7;;;0.2;82.7
41230;BME280;26964;50.428;19.218;2022-11-24T02:33:31;1009.7;;;0.2;82.8
41230;BME280;26964;50.428;19.218;2022-11-24T02:38:31;1009.8;;;0.2;82.7
41230;BME280;26964;50.428;19.218;2022-11-24T02:43:35;1009.7;;;0.3;82.8
41230;BME280;26964;50.428;19.218;2022-11-24T02:48:31;1009.7;;;0.3;82.9
41230;BME280;26964;50.428;19.218;2022-11-24T02:53:30;1009.8;;;0.3;82.9
41230;BME280;26964;50.428;19.218;2022-11-24T02:58:30;1009.8;;;0.3;82.8
41230;BME280;26964;50.428;19.218;2022-11-24T03:03:31;1009.7;;;0.3;82.8
41230;BME280;26964;50.428;19.218;2022-11-24T03:08:30;1009.8;;;0.3;82.9
41230;BME280;26964;50.428;19.218;2022-11-24T03:13:31;1009.6;;;0.3;82.9
41230;BME280;26964;50.428;19.218;2022-11-24T03:18:31;1009.6;;;0.4;82.9
41230;BME280;26964;50.428;19.218;2022-11-24T03:23:30;1009.7;;;0.4;82.9
41230;BME280;26964;50.428;19.218;2022-11-24T03:28:31;1009.7;;;0.4;82.9
41230;BME280;26964;50.428;19.218;2022-11-24T03:33:30;1009.8;;;0.4;82.9
41230;BME280;26964;50.428;19.218;2022-11-24T03:38:30;1009.8;;;0.5;82.9
41230;BME280;26964;50.428;19.218;2022-11-24T03:43:30;1009.8;;;0.5;82.9
41230;BME280;26964;50.428;19.218;2022-11-24T03:48:30;1009.8;;;0.5;82.9
41230;BME280;26964;50.428;19.218;2022-11-24T03:53:30;1009.8;;;0.4;82.8
41230;BME280;26964;50.428;19.218;2022-11-24T03:58:30;1009.9;;;0.5;82.9
41230;BME280;26964;50.428;19.218;2022-11-24T04:03:30;1010.0;;;0.5;82.9
41230;BME280;26964;50.428;19.218;2022-11-24T04:08:30;1010.1;;;0.5;82.8
41230;BME280;26964;50.428;19.218;2022-11-24T04:13:31;1010.1;;;0.5;82.9
41230;BME280;26964;50.428;19.218;2022-11-24T04:18:30;1010.1;;;0.6;83.0
41230;BME280;26964;50.428;19.218;2022-11-24T04:23:31;1010.0;;;0.6;83.0
41230;BME280;26964;50.428;19.218;2022-11-24T04:28:30;1010.1;;;0.6;82.9
41230;BME280;26964;50.428;19.218;2022-11-24T04:33:30;1010.2;;;0.6;82.9
41230;BME280;26964;50.428;19.218;2022-11-24T04:38:31;1010.2;;;0.6;82.8
41230;BME280;26964;50.428;19.218;2022-11-24T04:43:31;1010.3;;;0.6;82.9
41230;BME280;26964;50.428;19.218;2022-11-24T04:48:30;1010.3;;;0.6;82.9
41230;BME280;26964;50.428;19.218;2022-11-24T04:53:31;1010.3;;;0.6;82.9
41230;BME280;26964;50.428;19.218;2022-11-24T04:58:31;1010.3;;;0.6;82.9
41230;BME280;26964;50.428;19.218;2022-11-24T05:03:30;1010.4;;;0.6;82.9
41230;BME280;26964;50.428;19.218;2022-11-24T05:08:30;1010.4;;;0.6;82.7
41230;BME280;26964;50.428;19.218;2022-11-24T05:13:30;1010.5;;;0.6;82.8
41230;BME280;26964;50.428;19.218;2022-11-24T05:18:30;1010.6;;;0.6;82.7
41230;BME280;26964;50.428;19.218;2022-11-24T05:23:31;1010.6;;;0.5;82.8
41230;BME280;26964;50.428;19.218;2022-11-24T05:28:30;1010.6;;;0.5;82.8
41230;BME280;26964;50.428;19.218;2022-11-24T05:33:30;1010.5;;;0.5;82.8
41230;BME280;26964;50.428;19.218;2022-11-24T05:38:30;1010.6;;;0.5;82.8
41230;BME280;26964;50.428;19.218;2022-11-24T05:43:30;1010.7;;;0.5;82.8
41230;BME280;26964;50.428;19.218;2022-11-24T05:48:30;1010.7;;;0.4;82.8
41230;BME280;26964;50.428;19.218;2022-11-24T05:53:30;1010.7;;;0.5;82.9
41230;BME280;26964;50.428;19.218;2022-11-24T05:58:30;1010.8;;;0.5;82.9
41230;BME280;26964;50.428;19.218;2022-11-24T06:03:30;1010.9;;;0.4;82.8
41230;BME280;26964;50.428;19.218;2022-11-24T06:08:31;1011.0;;;0.4;82.8
41230;BME280;26964;50.428;19.218;2022-11-24T06:13:30;1011.0;;;0.4;82.9
41230;BME280;26964;50.428;19.218;2022-11-24T06:18:31;1011.0;;;0.4;82.8
41230;BME280;26964;50.428;19.218;2022-11-24T06:23:31;1011.1;;;0.4;82.8
41230;BME280;26964;50.428;19.218;2022-11-24T06:28:30;1011.1;;;0.4;82.9
41230;BME280;26964;50.428;19.218;2022-11-24T06:33:31;1011.1;;;0.4;82.9
41230;BME280;26964;50.428;19.218;2022-11-24T06:38:30;1011.2;;;0.4;82.8
41230;BME280;26964;50.428;19.218;2022-11-24T06:43:30;1011.2;;;0.4;82.9
41230;BME280;26964;50.428;19.218;2022-11-24T06:48:30;1011.3;;;0.4;83.0
41230;BME280;26964;50.428;19.218;2022-11-24T06:53:30;1011.3;;;0.5;83.0
41230;BME280;26964;50.428;19.218;2022-11-24T06:58:30;1011.4;;;0.5;83.0
41230;BME280;26964;50.428;19.218;2022-11-24T07:03:30;1011.4;;;0.5;82.9
41230;BME280;26964;50.428;19.218;2022-11-24T07:08:30;1011.3;;;0.4;82.9
41230;BME280;26964;50.428;19.218;2022-11-24T07:13:31;1011.6;;;0.4;82.8
41230;BME280;26964;50.428;19.218;2022-11-24T07:18:30;1011.5;;;0.4;82.8
41230;BME280;26964;50.428;19.218;2022-11-24T07:23:30;1011.5;;;0.4;82.9
41230;BME280;26964;50.428;19.218;2022-11-24T07:28:32;1011.7;;;0.4;82.9
41230;BME280;26964;50.428;19.218;2022-11-24T07:33:33;1011.6;;;0.4;82.9
41230;BME280;26964;50.428;19.218;2022-11-24T07:38:36;1011.6;;;0.5;82.9
41230;BME280;26964;50.428;19.218;2022-11-24T07:43:35;1011.6;;;0.5;82.9
41230;BME280;26964;50.428;19.218;2022-11-24T07:48:34;1011.6;;;0.6;83.0
41230;BME280;26964;50.428;19.218;2022-11-24T08:03:30;1011.8;;;0.7;83.0
41230;BME280;26964;50.428;19.218;2022-11-24T08:08:30;1011.9;;;0.7;83.0
41230;BME280;26964;50.428;19.218;2022-11-24T08:13:30;1011.8;;;0.7;83.0
41230;BME280;26964;50.428;19.218;2022-11-24T08:18:30;1011.9;;;0.7;83.0
41230;BME280;26964;50.428;19.218;2022-11-24T08:23:30;1011.8;;;0.7;83.0
41230;BME280;26964;50.428;19.218;2022-11-24T08:28:30;1011.9;;;0.7;83.0
41230;BME280;26964;50.428;19.218;2022-11-24T08:33:30;1012.0;;;0.7;83.0
41230;BME280;26964;50.428;19.218;2022-11-24T08:38:29;1012.0;;;0.7;83.0
41230;BME280;26964;50.428;19.218;2022-11-24T08:43:29;1012.1;;;0.6;83.0
41230;BME280;26964;50.428;19.218;2022-11-24T08:48:29;1012.2;;;0.6;82.9
41230;BME280;26964;50.428;19.218;2022-11-24T08:53:29;1012.2;;;0.6;83.0
41230;BME280;26964;50.428;19.218;2022-11-24T08:58:31;1012.2;;;0.6;83.1
41230;BME280;26964;50.428;19.218;2022-11-24T09:03:30;1012.4;;;0.5;83.0
41230;BME280;26964;50.428;19.218;2022-11-24T09:08:31;1012.2;;;0.5;83.1
41230;BME280;26964;50.428;19.218;2022-11-24T09:13:30;1012.2;;;0.5;83.2
41230;BME280;26964;50.428;19.218;2022-11-24T09:18:30;1012.2;;;0.5;83.1
41230;BME280;26964;50.428;19.218;2022-11-24T09:23:30;1012.3;;;0.5;83.1
41230;BME280;26964;50.428;19.218;2022-11-24T09:28:30;1012.2;;;0.5;83.1
41230;BME280;26964;50.428;19.218;2022-11-24T09:33:30;1012.3;;;0.5;83.1
41230;BME280;26964;50.428;19.218;2022-11-24T09:38:29;1012.3;;;0.5;83.1
41230;BME280;26964;50.428;19.218;2022-11-24T09:43:34;1012.3;;;0.5;83.1
41230;BME280;26964;50.428;19.218;2022-11-24T09:48:34;1012.3;;;0.5;83.1
41230;BME280;26964;50.428;19.218;2022-11-24T09:53:34;1012.3;;;0.5;83.1
41230;BME280;26964;50.428;19.218;2022-11-24T09:58:34;1012.3;;;0.5;83.1
41230;BME280;26964;50.428;19.218;2022-11-24T10:03:34;1012.3;;;0.5;83.0
41230;BME280;26964;50.428;19.218;2022-11-24T10:28:34;1012.3;;;0.5;83.1
41230;BME280;26964;50.428;19.218;2022-11-24T10:33:29;1012.3;;;0.4;83.1
41230;BME280;26964;50.428;19.218;2022-11-24T10:38:33;1012.3;;;0.5;83.1
41230;BME280;26964;50.428;19.218;2022-11-24T10:43:30;1012.3;;;0.5;83.2
41230;BME280;26964;50.428;19.218;2022-11-24T10:53:29;1012.4;;;0.6;83.2
41230;BME280;26964;50.428;19.218;2022-11-24T10:58:31;1012.4;;;0.6;83.1
41230;BME280;26964;50.428;19.218;2022-11-24T11:03:31;1012.4;;;0.5;83.1
41230;BME280;26964;50.428;19.218;2022-11-24T11:08:30;1012.5;;;0.5;83.1
41230;BME280;26964;50.428;19.218;2022-11-24T11:13:29;1012.5;;;0.5;83.1
41230;BME280;26964;50.428;19.218;2022-11-24T11:18:30;1012.4;;;0.4;83.2
41230;BME280;26964;50.428;19.218;2022-11-24T11:23:31;1012.5;;;0.4;83.2
41230;BME280;26964;50.428;19.218;2022-11-24T11:28:29;1012.4;;;0.4;83.2
41230;BME280;26964;50.428;19.218;2022-11-24T11:33:30;1012.5;;;0.5;83.2
41230;BME280;26964;50.428;19.218;2022-11-24T11:38:34;1012.5;;;0.5;83.2
41230;BME280;26964;50.428;19.218;2022-11-24T11:43:31;1012.5;;;0.6;83.2
41230;BME280;26964;50.428;19.218;2022-11-24T11:48:31;1012.6;;;0.6;83.2
41230;BME280;26964;50.428;19.218;2022-11-24T11:53:33;1012.6;;;0.7;83.2
41230;BME280;26964;50.428;19.218;2022-11-24T12:08:36;1012.6;;;0.8;83.2
41230;BME280;26964;50.428;19.218;2022-11-24T12:18:34;1012.7;;;0.7;83.2
41230;BME280;26964;50.428;19.218;2022-11-24T12:43:33;1012.6;;;0.9;83.2
41230;BME280;26964;50.428;19.218;2022-11-24T12:53:31;1012.9;;;0.9;83.2
41230;BME280;26964;50.428;19.218;2022-11-24T12:58:35;1012.9;;;0.9;83.2
41230;BME280;26964;50.428;19.218;2022-11-24T13:03:35;1012.9;;;0.9;83.2
41230;BME280;26964;50.428;19.218;2022-11-24T13:08:33;1012.9;;;0.9;83.3
41230;BME280;26964;50.428;19.218;2022-11-24T13:23:29;1013.1;;;0.9;83.2
41230;BME280;26964;50.428;19.218;2022-11-24T13:33:34;1013.2;;;0.9;83.3
41230;BME280;26964;50.428;19.218;2022-11-24T13:43:29;1013.3;;;0.8;83.2
41230;BME280;26964;50.428;19.218;2022-11-24T13:53:33;1013.4;;;0.8;83.3
41230;BME280;26964;50.428;19.218;2022-11-24T13:58:32;1013.5;;;0.7;83.3
41230;BME280;26964;50.428;19.218;2022-11-24T14:03:30;1013.7;;;0.7;83.2
41230;BME280;26964;50.428;19.218;2022-11-24T14:08:33;1013.7;;;0.7;83.3
41230;BME280;26964;50.428;19.218;2022-11-24T14:13:31;1013.8;;;0.6;83.2
41230;BME280;26964;50.428;19.218;2022-11-24T14:18:31;1013.9;;;0.6;83.3
41230;BME280;26964;50.428;19.218;2022-11-24T14:23:30;1014.0;;;0.6;83.3
41230;BME280;26964;50.428;19.218;2022-11-24T14:28:30;1014.1;;;0.6;83.4
41230;BME280;26964;50.428;19.218;2022-11-24T14:33:29;1014.1;;;0.6;83.3
41230;BME280;26964;50.428;19.218;2022-11-24T14:38:29;1014.1;;;0.6;83.3
41230;BME280;26964;50.428;19.218;2022-11-24T14:43:31;1014.1;;;0.5;83.4
41230;BME280;26964;50.428;19.218;2022-11-24T14:53:28;1014.2;;;0.5;83.4
41230;BME280;26964;50.428;19.218;2022-11-24T14:58:30;1014.2;;;0.5;83.4
41230;BME280;26964;50.428;19.218;2022-11-24T15:03:29;1014.4;;;0.5;83.4
41230;BME280;26964;50.428;19.218;2022-11-24T15:08:34;1014.4;;;0.4;83.4
41230;BME280;26964;50.428;19.218;2022-11-24T15:13:33;1014.5;;;0.4;83.5
41230;BME280;26964;50.428;19.218;2022-11-24T15:18:35;1014.5;;;0.4;83.6
41230;BME280;26964;50.428;19.218;2022-11-24T15:23:29;1014.6;;;0.4;83.6
41230;BME280;26964;50.428;19.218;2022-11-24T15:28:29;1014.7;;;0.4;83.6
41230;BME280;26964;50.428;19.218;2022-11-24T15:33:29;1014.7;;;0.4;83.5
41230;BME280;26964;50.428;19.218;2022-11-24T15:38:29;1014.7;;;0.4;83.5
41230;BME280;26964;50.428;19.218;2022-11-24T15:43:30;1014.7;;;0.4;83.6
41230;BME280;26964;50.428;19.218;2022-11-24T15:48:29;1014.7;;;0.4;83.5
41230;BME280;26964;50.428;19.218;2022-11-24T15:53:32;1014.8;;;0.4;83.6
41230;BME280;26964;50.428;19.218;2022-11-24T15:58:29;1014.9;;;0.4;83.6
41230;BME280;26964;50.428;19.218;2022-11-24T16:03:29;1014.9;;;0.4;83.7
41230;BME280;26964;50.428;19.218;2022-11-24T16:08:29;1014.9;;;0.4;83.6
41230;BME280;26964;50.428;19.218;2022-11-24T16:13:28;1014.9;;;0.4;83.6
41230;BME280;26964;50.428;19.218;2022-11-24T16:18:29;1015.0;;;0.4;83.5
41230;BME280;26964;50.428;19.218;2022-11-24T16:23:28;1015.0;;;0.3;83.6
41230;BME280;26964;50.428;19.218;2022-11-24T16:28:28;1014.9;;;0.4;83.6
41230;BME280;26964;50.428;19.218;2022-11-24T16:33:29;1014.9;;;0.4;83.6
41230;BME280;26964;50.428;19.218;2022-11-24T16:38:28;1015.0;;;0.3;83.6
41230;BME280;26964;50.428;19.218;2022-11-24T16:43:28;1015.1;;;0.4;83.7
41230;BME280;26964;50.428;19.218;2022-11-24T16:48:34;1015.1;;;0.4;83.6
41230;BME280;26964;50.428;19.218;2022-11-24T16:53:29;1015.2;;;0.4;83.6
41230;BME280;26964;50.428;19.218;2022-11-24T16:58:28;1015.2;;;0.4;83.6
41230;BME280;26964;50.428;19.218;2022-11-24T17:03:29;1015.3;;;0.4;83.6
41230;BME280;26964;50.428;19.218;2022-11-24T17:08:29;1015.2;;;0.4;83.7
41230;BME280;26964;50.428;19.218;2022-11-24T17:13:30;1015.4;;;0.4;83.6
41230;BME280;26964;50.428;19.218;2022-11-24T17:18:28;1015.3;;;0.5;83.6
41230;BME280;26964;50.428;19.218;2022-11-24T17:23:28;1015.5;;;0.4;83.6
41230;BME280;26964;50.428;19.218;2022-11-24T17:28:28;1015.5;;;0.5;83.6
41230;BME280;26964;50.428;19.218;2022-11-24T17:33:28;1015.5;;;0.5;83.7
41230;BME280;26964;50.428;19.218;2022-11-24T17:38:29;1015.6;;;0.6;83.8
41230;BME280;26964;50.428;19.218;2022-11-24T17:43:29;1015.7;;;0.6;83.8
41230;BME280;26964;50.428;19.218;2022-11-24T17:48:30;1015.7;;;0.5;83.6
41230;BME280;26964;50.428;19.218;2022-11-24T17:53:29;1015.7;;;0.5;83.7
41230;BME280;26964;50.428;19.218;2022-11-24T17:58:30;1015.8;;;0.6;83.8
41230;BME280;26964;50.428;19.218;2022-11-24T18:03:29;1015.9;;;0.6;83.7
41230;BME280;26964;50.428;19.218;2022-11-24T18:08:32;1015.9;;;0.6;83.7
41230;BME280;26964;50.428;19.218;2022-11-24T18:13:29;1016.0;;;0.5;83.7
41230;BME280;26964;50.428;19.218;2022-11-24T18:18:30;1016.1;;;0.6;83.8
41230;BME280;26964;50.428;19.218;2022-11-24T18:23:31;1016.0;;;0.6;83.7
41230;BME280;26964;50.428;19.218;2022-11-24T18:28:28;1016.2;;;0.6;83.9
41230;BME280;26964;50.428;19.218;2022-11-24T18:33:29;1016.2;;;0.6;83.8
41230;BME280;26964;50.428;19.218;2022-11-24T18:38:29;1016.2;;;0.6;83.8
41230;BME280;26964;50.428;19.218;2022-11-24T18:43:28;1016.2;;;0.6;83.8
41230;BME280;26964;50.428;19.218;2022-11-24T18:48:28;1016.2;;;0.6;83.9
41230;BME280;26964;50.428;19.218;2022-11-24T18:53:33;1016.3;;;0.6;83.9
41230;BME280;26964;50.428;19.218;2022-11-24T18:58:30;1016.2;;;0.6;83.8
41230;BME280;26964;50.428;19.218;2022-11-24T19:03:29;1016.3;;;0.6;83.9
41230;BME280;26964;50.428;19.218;2022-11-24T19:08:29;1016.4;;;0.7;83.7
41230;BME280;26964;50.428;19.218;2022-11-24T19:13:29;1016.5;;;0.6;83.6
41230;BME280;26964;50.428;19.218;2022-11-24T19:18:29;1016.5;;;0.6;83.6
41230;BME280;26964;50.428;19.218;2022-11-24T19:23:29;1016.5;;;0.6;83.6
41230;BME280;26964;50.428;19.218;2022-11-24T19:28:29;1016.6;;;0.6;83.7
41230;BME280;26964;50.428;19.218;2022-11-24T19:33:30;1016.6;;;0.6;83.7
41230;BME280;26964;50.428;19.218;2022-11-24T19:38:30;1016.6;;;0.6;83.7
41230;BME280;26964;50.428;19.218;2022-11-24T19:43:30;1016.5;;;0.6;83.6
41230;BME280;26964;50.428;19.218;2022-11-24T19:48:34;1016.5;;;0.6;83.8
41230;BME280;26964;50.428;19.218;2022-11-24T19:53:30;1016.6;;;0.7;83.8
41230;BME280;26964;50.428;19.218;2022-11-24T19:58:30;1016.7;;;0.7;83.7
41230;BME280;26964;50.428;19.218;2022-11-24T20:03:29;1016.7;;;0.7;83.7
41230;BME280;26964;50.428;19.218;2022-11-24T20:13:36;1016.8;;;0.7;83.7
41230;BME280;26964;50.428;19.218;2022-11-24T20:18:31;1016.8;;;0.6;83.7
41230;BME280;26964;50.428;19.218;2022-11-24T20:23:30;1017.0;;;0.6;83.8
41230;BME280;26964;50.428;19.218;2022-11-24T20:28:29;1016.9;;;0.7;83.8
41230;BME280;26964;50.428;19.218;2022-11-24T20:33:35;1017.0;;;0.7;83.8
41230;BME280;26964;50.428;19.218;2022-11-24T20:38:29;1017.0;;;0.7;83.7
41230;BME280;26964;50.428;19.218;2022-11-24T20:43:29;1017.1;;;0.6;83.6
41230;BME280;26964;50.428;19.218;2022-11-24T20:48:29;1017.2;;;0.6;83.7
41230;BME280;26964;50.428;19.218;2022-11-24T20:53:29;1017.2;;;0.6;83.8
41230;BME280;26964;50.428;19.218;2022-11-24T20:58:29;1017.2;;;0.7;83.8
41230;BME280;26964;50.428;19.218;2022-11-24T21:03:29;1017.3;;;0.7;83.9
41230;BME280;26964;50.428;19.218;2022-11-24T21:08:31;1017.3;;;0.7;84.0
41230;BME280;26964;50.428;19.218;2022-11-24T21:13:32;1017.4;;;0.8;84.0
41230;BME280;26964;50.428;19.218;2022-11-24T21:18:28;1017.3;;;0.8;83.9
41230;BME280;26964;50.428;19.218;2022-11-24T21:23:28;1017.3;;;0.8;83.9
41230;BME280;26964;50.428;19.218;2022-11-24T21:28:29;1017.3;;;0.8;84.1
41230;BME280;26964;50.428;19.218;2022-11-24T21:33:29;1017.4;;;0.9;84.0
41230;BME280;26964;50.428;19.218;2022-11-24T21:38:29;1017.3;;;0.8;83.9
41230;BME280;26964;50.428;19.218;2022-11-24T21:43:29;1017.4;;;0.8;83.9
41230;BME280;26964;50.428;19.218;2022-11-24T21:48:29;1017.4;;;0.8;83.9
41230;BME280;26964;50.428;19.218;2022-11-24T21:53:30;1017.4;;;0.8;83.8
41230;BME280;26964;50.428;19.218;2022-11-24T21:58:29;1017.5;;;0.8;83.7
41230;BME280;26964;50.428;19.218;2022-11-24T22:03:29;1017.5;;;0.8;83.9
41230;BME280;26964;50.428;19.218;2022-11-24T22:08:30;1017.5;;;0.8;83.7
41230;BME280;26964;50.428;19.218;2022-11-24T22:13:29;1017.6;;;0.8;83.9
41230;BME280;26964;50.428;19.218;2022-11-24T22:18:30;1017.5;;;0.7;83.7
41230;BME280;26964;50.428;19.218;2022-11-24T22:23:29;1017.5;;;0.7;83.7
41230;BME280;26964;50.428;19.218;2022-11-24T22:28:29;1017.6;;;0.7;83.8
41230;BME280;26964;50.428;19.218;2022-11-24T22:33:28;1017.5;;;0.7;83.9
41230;BME280;26964;50.428;19.218;2022-11-24T22:38:29;1017.6;;;0.7;83.8
41230;BME280;26964;50.428;19.218;2022-11-24T22:43:30;1017.7;;;0.7;83.8
41230;BME280;26964;50.428;19.218;2022-11-24T22:48:28;1017.7;;;0.7;83.7
41230;BME280;26964;50.428;19.218;2022-11-24T22:53:29;1017.8;;;0.6;83.6
41230;BME280;26964;50.428;19.218;2022-11-24T22:58:29;1017.8;;;0.6;83.6
41230;BME280;26964;50.428;19.218;2022-11-24T23:03:28;1017.8;;;0.6;83.8
41230;BME280;26964;50.428;19.218;2022-11-24T23:08:29;1017.8;;;0.6;83.8
41230;BME280;26964;50.428;19.218;2022-11-24T23:13:29;1017.9;;;0.5;83.8
41230;BME280;26964;50.428;19.218;2022-11-24T23:18:29;1018.1;;;0.6;83.8
41230;BME280;26964;50.428;19.218;2022-11-24T23:23:29;1018.0;;;0.6;83.8
41230;BME280;26964;50.428;19.218;2022-11-24T23:28:29;1017.9;;;0.6;83.8
41230;BME280;26964;50.428;19.218;2022-11-24T23:33:29;1017.9;;;0.6;84.0
41230;BME280;26964;50.428;19.218;2022-11-24T23:38:29;1017.9;;;0.7;84.0
41230;BME280;26964;50.428;19.218;2022-11-24T23:43:29;1017.9;;;0.8;84.1
41230;BME280;26964;50.428;19.218;2022-11-24T23:48:29;1017.8;;;0.8;84.1
41230;BME280;26964;50.428;19.218;2022-11-24T23:53:29;1017.9;;;0.8;83.9
41230;BME280;26964;50.428;19.218;2022-11-24T23:58:29;1017.9;;;0.7;83.8
